Greenwich Township, New Jersey
Current Conditions -  °F | °C
As of 11:54 PM on Wednesday 22 Oct 2014 (Local Time) from KMIV Reporting Station
Light Rain Light Rain  
Wind Chill: 52°   Ceiling: 3500
Heat Index: 52°   Visibility: 10mi
Dew Point: 49°   Wind: 13mph
Humidity: 89%   Direction: 320°NW
Pressure: 29.77"   Gusts: 23mph
Location:  39.386°N, 75.3403°W
Report Text: KMIV 230354Z AUTO 32011G20KT 10SM -RA FEW014 BKN035 OVC042 11/09 A2977 RMK AO2 SLP078 T01110094 PNO $
Loading
Personal Weather Stations






























Interactive Weather Map
Tropical Storm Tracking
New forecast layout! Learn more

10-Day Weather Forecast

Advertisements
Track Severe Weather on mobile